Time;durP1;ratioP1;P1;durP2;ratioP2;P2;SDS_P1;SDS_P2;PMS_P1;PMS_P2;Temp;Humidity;BMP_temperature;BMP_pressure;BME280_temperature;BME280_humidity;BME280_pressure;Samples;Min_cycle;Max_cycle;Signal;HPM_P1;HPM_P2
2023/07/02 00:03:13;;;;;;;10.00;3.33;;;;;;;14.95;100.00;100395.06;10169542;29;20044;-80
2023/07/02 00:08:14;;;;;;;10.52;3.97;;;;;;;14.93;100.00;100387.03;10170109;29;20421;-80
2023/07/02 00:13:15;;;;;;;6.40;3.47;;;;;;;14.86;100.00;100380.19;10139945;29;20107;-79
2023/07/02 00:18:16;;;;;;;9.90;3.28;;;;;;;14.95;100.00;100388.72;10139535;29;20048;-78
2023/07/02 00:23:16;;;;;;;14.57;4.32;;;;;;;14.86;100.00;100386.59;10155490;29;20048;-79
2023/07/02 00:28:17;;;;;;;17.20;4.15;;;;;;;14.81;100.00;100388.59;10170465;29;20040;-79
2023/07/02 00:33:18;;;;;;;12.95;3.75;;;;;;;14.80;100.00;100389.69;10160556;29;20068;-79
2023/07/02 00:38:18;;;;;;;10.40;3.90;;;;;;;14.76;100.00;100392.25;10147313;29;20088;-78
2023/07/02 00:43:19;;;;;;;11.70;4.55;;;;;;;14.70;100.00;100391.47;10178467;29;20040;-79
2023/07/02 00:48:19;;;;;;;12.52;5.53;;;;;;;14.52;100.00;100381.09;10176770;29;20068;-80
2023/07/02 00:53:19;;;;;;;11.43;5.40;;;;;;;14.49;100.00;100396.38;10146401;29;20044;-81
2023/07/02 00:58:20;;;;;;;16.83;5.38;;;;;;;14.37;100.00;100389.56;10178146;29;20040;-79
2023/07/02 01:03:21;;;;;;;15.70;5.75;;;;;;;14.28;100.00;100386.59;10146551;29;21151;-73
2023/07/02 01:08:21;;;;;;;16.75;4.72;;;;;;;14.17;100.00;100379.50;10146469;29;20104;-78
2023/07/02 01:13:22;;;;;;;16.15;5.05;;;;;;;14.05;100.00;100382.63;10145990;29;20036;-80
2023/07/02 01:18:22;;;;;;;16.50;5.50;;;;;;;13.91;100.00;100380.53;10161362;29;20062;-78
2023/07/02 01:23:23;;;;;;;22.92;6.47;;;;;;;13.80;100.00;100376.19;10178589;29;20056;-79
2023/07/02 01:28:23;;;;;;;16.02;5.22;;;;;;;13.75;100.00;100375.41;10144785;29;20040;-79
2023/07/02 01:33:24;;;;;;;24.63;6.63;;;;;;;13.59;100.00;100369.97;10161147;29;20047;-79
2023/07/02 01:38:24;;;;;;;16.13;5.47;;;;;;;13.58;100.00;100384.09;10144186;29;20048;-79
2023/07/02 01:43:25;;;;;;;25.45;6.68;;;;;;;13.52;100.00;100384.13;10175459;29;20047;-79
2023/07/02 01:48:25;;;;;;;22.80;6.95;;;;;;;13.44;100.00;100383.91;10176963;29;20088;-80
2023/07/02 01:53:26;;;;;;;22.35;7.18;;;;;;;13.33;100.00;100385.88;10145440;29;20048;-80
2023/07/02 01:58:26;;;;;;;30.13;8.18;;;;;;;13.24;100.00;100384.81;10176348;29;20506;-78
2023/07/02 02:03:27;;;;;;;16.58;5.78;;;;;;;13.14;100.00;100391.19;10159947;29;20100;-78
2023/07/02 02:08:27;;;;;;;18.17;5.65;;;;;;;12.98;100.00;100392.38;10177284;29;20035;-78
2023/07/02 02:13:28;;;;;;;17.77;6.07;;;;;;;12.41;100.00;100328.22;10175417;29;20099;-79
2023/07/02 02:18:28;;;;;;;16.52;6.47;;;;;;;12.76;100.00;100412.91;10158168;29;20036;-79
2023/07/02 02:23:29;;;;;;;27.58;6.78;;;;;;;12.27;100.00;100361.91;10158600;29;20115;-79
2023/07/02 02:28:29;;;;;;;20.33;6.43;;;;;;;12.44;100.00;100421.50;10175453;29;20036;-79
2023/07/02 02:33:30;;;;;;;16.20;5.63;;;;;;;12.27;100.00;100416.28;10142918;29;20036;-79
2023/07/02 02:38:30;;;;;;;20.88;7.15;;;;;;;12.17;100.00;100425.38;10143839;29;20059;-78
2023/07/02 02:43:31;;;;;;;19.95;7.05;;;;;;;12.06;100.00;100420.97;10142224;29;20051;-79
2023/07/02 02:48:31;;;;;;;14.82;5.57;;;;;;;11.96;100.00;100420.97;10156870;29;20040;-79
2023/07/02 02:53:32;;;;;;;18.77;6.20;;;;;;;11.85;100.00;100426.44;10172004;29;20032;-79
2023/07/02 02:58:32;;;;;;;19.42;6.63;;;;;;;11.78;100.00;100428.66;10174296;29;20044;-79
2023/07/02 03:03:35;;;;;;;18.42;6.05;;;;;;;11.65;100.00;100418.13;10157753;29;20103;-78
2023/07/02 03:08:36;;;;;;;18.02;6.65;;;;;;;11.65;100.00;100420.91;10157868;29;20044;-79
2023/07/02 03:13:36;;;;;;;33.88;7.70;;;;;;;11.64;100.00;100424.78;10157353;29;20032;-78
2023/07/02 03:18:37;;;;;;;24.52;8.30;;;;;;;11.63;100.00;100431.38;10173021;29;20048;-77
2023/07/02 03:23:37;;;;;;;36.80;8.95;;;;;;;11.62;100.00;100438.00;10172963;29;20048;-80
2023/07/02 03:28:38;;;;;;;20.25;5.72;;;;;;;11.45;100.00;100411.50;10155923;29;20036;-78
2023/07/02 03:33:38;;;;;;;21.70;6.85;;;;;;;11.58;100.00;100436.88;10156815;29;20036;-77
2023/07/02 03:38:39;;;;;;;18.52;7.53;;;;;;;11.57;100.00;100435.22;10174022;29;20044;-78
2023/07/02 03:43:39;;;;;;;22.92;7.63;;;;;;;11.54;100.00;100430.25;10139473;29;20052;-78
2023/07/02 03:48:40;;;;;;;24.67;6.03;;;;;;;11.60;100.00;100440.19;10140345;29;20076;-78
2023/07/02 03:53:41;;;;;;;22.58;6.25;;;;;;;11.68;100.00;100442.44;10155819;29;20477;-78
2023/07/02 03:58:42;;;;;;;23.48;7.35;;;;;;;11.71;100.00;100439.13;10155081;29;20044;-78
2023/07/02 04:03:48;;;;;;;25.63;7.57;;;;;;;11.71;100.00;100426.13;10140624;29;20051;-78
2023/07/02 04:08:49;;;;;;;23.58;6.78;;;;;;;11.84;100.00;100443.25;10124373;29;20560;-79
2023/07/02 04:13:49;;;;;;;25.55;6.90;;;;;;;11.92;100.00;100451.03;10139007;29;20072;-78
2023/07/02 04:18:50;;;;;;;21.88;6.15;;;;;;;12.03;100.00;100462.91;10154704;29;20042;-78
2023/07/02 04:23:50;;;;;;;20.80;6.53;;;;;;;12.09;100.00;100465.41;10139098;29;20075;-78
2023/07/02 04:28:51;;;;;;;19.17;6.78;;;;;;;12.17;100.00;100458.50;10171916;29;20402;-78
2023/07/02 04:33:51;;;;;;;18.23;6.55;;;;;;;12.24;100.00;100463.78;10155507;29;20032;-77
2023/07/02 04:38:52;;;;;;;20.95;7.50;;;;;;;12.40;100.00;100476.47;10171774;29;20075;-78
2023/07/02 04:43:52;;;;;;;26.67;7.22;;;;;;;12.59;100.00;100468.44;10155040;29;20039;-76
2023/07/02 04:48:52;;;;;;;20.70;7.22;;;;;;;12.82;100.00;100471.72;10145779;29;20044;-76
2023/07/02 04:53:53;;;;;;;23.90;7.53;;;;;;;13.03;100.00;100465.03;10154970;29;20051;-77
2023/07/02 04:58:53;;;;;;;20.98;7.28;;;;;;;13.28;100.00;100468.84;10154287;29;20047;-77
2023/07/02 05:03:54;;;;;;;18.67;6.50;;;;;;;13.40;100.00;100482.38;10172391;29;20103;-77
2023/07/02 05:08:54;;;;;;;19.98;6.60;;;;;;;13.40;100.00;100483.19;10171658;29;20037;-77
2023/07/02 05:13:55;;;;;;;22.48;7.40;;;;;;;13.27;100.00;100490.13;10154462;29;20060;-78
2023/07/02 05:18:55;;;;;;;27.50;8.15;;;;;;;13.19;100.00;100470.50;10159412;29;20036;-78
2023/07/02 05:23:56;;;;;;;17.48;5.90;;;;;;;13.26;100.00;100471.06;10159485;29;20056;-77
2023/07/02 05:28:56;;;;;;;20.17;7.00;;;;;;;13.45;100.00;100483.16;10150805;29;20048;-73
2023/07/02 05:33:57;;;;;;;33.00;8.85;;;;;;;13.59;100.00;100486.16;10178577;29;20048;-78
2023/07/02 05:38:57;;;;;;;25.13;6.43;;;;;;;13.80;100.00;100489.63;10177931;29;20040;-76
2023/07/02 05:43:58;;;;;;;20.42;5.93;;;;;;;14.07;100.00;100477.28;10177518;29;20036;-78
2023/07/02 05:48:59;;;;;;;21.92;6.25;;;;;;;14.59;100.00;100473.00;10144841;29;20052;-78
2023/07/02 05:54:00;;;;;;;15.70;5.47;;;;;;;14.84;100.00;100471.13;10147986;29;20044;-78
2023/07/02 05:59:00;;;;;;;18.38;6.10;;;;;;;14.89;100.00;100490.47;10158122;29;20040;-80
2023/07/02 06:04:01;;;;;;;15.35;6.22;;;;;;;14.79;100.00;100485.03;10160183;29;20040;-79
2023/07/02 06:09:02;;;;;;;16.48;6.10;;;;;;;14.99;100.00;100490.38;10159910;29;20052;-80
2023/07/02 06:14:03;;;;;;;21.88;6.03;;;;;;;15.45;100.00;100491.78;10159792;29;20089;-79
2023/07/02 06:19:03;;;;;;;17.88;6.75;;;;;;;15.70;100.00;100493.41;10144711;29;20102;-79
2023/07/02 06:24:04;;;;;;;17.08;4.35;;;;;;;15.70;100.00;100490.63;10175639;29;20047;-82
2023/07/02 06:29:05;;;;;;;12.80;4.18;;;;;;;16.26;100.00;100500.13;10158527;29;20032;-77
2023/07/02 06:34:06;;;;;;;15.75;4.68;;;;;;;16.33;100.00;100493.06;10159290;29;20060;-75
2023/07/02 06:39:06;;;;;;;13.95;4.28;;;;;;;15.61;100.00;100423.06;10112555;29;20047;-79
2023/07/02 06:44:07;;;;;;;15.35;4.10;;;;;;;15.41;100.00;100508.19;10159868;29;20036;-84
2023/07/02 06:49:07;;;;;;;15.30;5.30;;;;;;;15.60;100.00;100508.22;10158799;29;20048;-80
2023/07/02 06:54:08;;;;;;;17.63;4.80;;;;;;;15.95;100.00;100525.56;10142864;29;20044;-81
2023/07/02 06:59:08;;;;;;;17.40;4.43;;;;;;;16.07;100.00;100525.13;10158542;29;20036;-89
2023/07/02 07:04:09;;;;;;;9.60;3.65;;;;;;;16.53;100.00;100527.19;10158134;29;20528;-81
2023/07/02 07:09:09;;;;;;;15.90;4.65;;;;;;;16.75;100.00;100530.16;10174810;29;20044;-83
2023/07/02 07:14:10;;;;;;;17.00;4.50;;;;;;;17.09;100.00;100517.91;10142389;29;20036;-87
2023/07/02 07:19:10;;;;;;;15.40;5.00;;;;;;;17.19;100.00;100527.19;10140794;29;20068;-85
2023/07/02 07:24:11;;;;;;;11.93;3.83;;;;;;;16.88;100.00;100544.44;10140821;29;20036;-83
2023/07/02 07:29:11;;;;;;;14.98;4.47;;;;;;;16.44;100.00;100548.47;10122960;29;20044;-85
2023/07/02 07:34:11;;;;;;;12.23;4.32;;;;;;;16.10;100.00;100552.28;10153913;29;20040;-83
2023/07/02 07:39:12;;;;;;;12.65;2.50;;;;;;;16.40;100.00;100539.09;10151269;29;20493;-83
2023/07/02 07:44:12;;;;;;;7.25;3.10;;;;;;;16.71;100.00;100523.56;10152977;29;20520;-85
2023/07/02 07:49:13;;;;;;;9.75;2.28;;;;;;;17.13;100.00;100518.94;10138521;29;20033;-79
2023/07/02 07:54:14;;;;;;;6.53;1.77;;;;;;;17.63;100.00;100531.31;10136607;29;20062;-76
2023/07/02 07:59:14;;;;;;;7.65;2.25;;;;;;;18.08;100.00;100534.28;10119693;29;20052;-76
2023/07/02 08:04:15;;;;;;;5.78;1.80;;;;;;;17.72;100.00;100551.75;10138622;29;20048;-77
2023/07/02 08:09:15;;;;;;;8.18;1.92;;;;;;;17.95;100.00;100536.78;10151551;29;20044;-81
2023/07/02 08:14:19;;;;;;;8.30;1.95;;;;;;;18.45;100.00;100540.69;10152167;29;20040;-87
2023/07/02 08:19:21;;;;;;;9.20;2.95;;;;;;;18.39;100.00;100539.16;10150336;29;20112;-89
2023/07/02 08:24:21;;;;;;;8.43;2.47;;;;;;;18.49;100.00;100552.84;10137094;29;20059;-82
2023/07/02 08:29:21;;;;;;;8.10;1.98;;;;;;;18.23;100.00;100555.41;10153377;29;20073;-79
2023/07/02 08:34:22;;;;;;;7.57;1.75;;;;;;;18.35;100.00;100548.16;10118545;29;20040;-79
2023/07/02 08:39:22;;;;;;;4.63;2.13;;;;;;;18.39;100.00;100530.78;10151685;29;20056;-85
2023/07/02 08:44:23;;;;;;;6.43;1.83;;;;;;;18.03;100.00;100554.72;10126629;29;20044;-80
2023/07/02 08:49:23;;;;;;;8.18;1.90;;;;;;;17.83;100.00;100569.91;10132915;29;20044;-77
2023/07/02 08:54:24;;;;;;;8.05;2.22;;;;;;;17.71;100.00;100575.13;10147064;29;20100;-81
2023/07/02 08:59:24;;;;;;;5.22;1.60;;;;;;;17.83;100.00;100560.75;10131100;29;20050;-81
2023/07/02 09:04:25;;;;;;;8.15;2.05;;;;;;;18.41;100.00;100578.69;10146606;29;20051;-75
2023/07/02 09:09:26;;;;;;;7.22;2.20;;;;;;;18.75;100.00;100584.53;10146508;29;20051;-83
2023/07/02 09:14:30;;;;;;;7.80;2.05;;;;;;;18.29;100.00;100610.72;10162208;29;20040;-76
2023/07/02 09:19:30;;;;;;;9.68;2.85;;;;;;;17.69;100.00;100624.75;10161276;29;20032;-77
2023/07/02 09:24:31;;;;;;;7.45;2.42;;;;;;;18.15;100.00;100615.50;10134888;29;20064;-75
2023/07/02 09:29:32;;;;;;;7.35;2.25;;;;;;;17.88;100.00;100633.88;10148419;29;20106;-77
2023/07/02 09:34:37;;;;;;;7.60;2.78;;;;;;;17.78;100.00;100625.69;10145577;29;20092;-77
2023/07/02 09:39:39;;;;;;;6.20;2.78;;;;;;;17.62;100.00;100641.03;10160564;29;20047;-77
2023/07/02 09:44:42;;;;;;;12.07;3.00;;;;;;;17.64;100.00;100622.06;10144761;29;20032;-76
2023/07/02 09:49:49;;;;;;;7.75;2.63;;;;;;;17.69;100.00;100624.75;10144102;29;20036;-75
2023/07/02 09:54:50;;;;;;;12.48;3.65;;;;;;;17.89;100.00;100616.00;10159703;29;20052;-75
2023/07/02 09:59:50;;;;;;;11.63;2.40;;;;;;;18.57;100.00;100624.56;10176753;29;20036;-76
2023/07/02 10:04:55;;;;;;;8.93;2.17;;;;;;;19.12;100.00;100617.97;10158462;29;20055;-77
2023/07/02 10:09:55;;;;;;;7.53;2.20;;;;;;;18.79;100.00;100611.81;10174292;29;20427;-76
2023/07/02 10:14:57;;;;;;;16.48;3.58;;;;;;;18.90;100.00;100632.75;10142060;29;20072;-76
2023/07/02 10:20:06;;;;;;;10.63;2.75;;;;;;;19.23;100.00;100627.72;10142506;29;20044;-75
2023/07/02 10:25:07;;;;;;;9.00;2.30;;;;;;;20.11;100.00;100623.38;10144951;29;20812;-76
2023/07/02 10:30:09;;;;;;;5.38;1.90;;;;;;;19.26;100.00;100613.13;10158413;29;20063;-78
2023/07/02 10:35:16;;;;;;;7.53;2.22;;;;;;;19.41;100.00;100625.03;10134593;29;20041;-80
2023/07/02 10:40:17;;;;;;;11.68;3.00;;;;;;;19.66;100.00;100629.13;10116095;29;20040;-81
2023/07/02 10:45:17;;;;;;;7.75;1.40;;;;;;;19.35;100.00;100629.94;10156660;29;20135;-80
2023/07/02 10:50:19;;;;;;;5.63;1.67;;;;;;;19.65;98.35;100627.47;10173675;29;20112;-80
2023/07/02 10:55:20;;;;;;;5.28;2.03;;;;;;;19.80;96.60;100623.44;10158108;29;20040;-74
2023/07/02 11:00:21;;;;;;;8.35;2.22;;;;;;;19.85;97.77;100637.28;10118688;29;20041;-74
2023/07/02 11:05:21;;;;;;;6.88;1.60;;;;;;;19.72;96.79;100636.22;10135703;29;20036;-76
2023/07/02 11:10:22;;;;;;;12.27;2.22;;;;;;;19.75;98.79;100655.13;10118131;29;20033;-74
2023/07/02 11:15:22;;;;;;;5.28;1.75;;;;;;;19.50;100.00;100657.44;10117886;29;20043;-74
2023/07/02 11:20:23;;;;;;;10.70;2.38;;;;;;;19.22;100.00;100664.31;10132445;29;20088;-74
2023/07/02 11:25:23;;;;;;;8.50;1.52;;;;;;;19.19;99.48;100676.13;10118214;29;20053;-76
2023/07/02 11:30:24;;;;;;;5.63;1.50;;;;;;;19.31;96.67;100660.44;10132863;29;20065;-74
2023/07/02 11:35:34;;;;;;;5.25;1.50;;;;;;;19.33;94.08;100601.53;10133176;29;20037;-76
2023/07/02 11:40:34;;;;;;;7.63;2.13;;;;;;;20.25;96.21;100640.00;10133040;29;20033;-77
2023/07/02 11:45:35;;;;;;;7.25;2.03;;;;;;;19.73;92.47;100643.47;10101857;29;20060;-81
2023/07/02 11:50:35;;;;;;;5.93;1.67;;;;;;;19.19;95.03;100665.78;10119410;29;20072;-80
2023/07/02 11:55:36;;;;;;;6.30;1.75;;;;;;;19.90;94.87;100665.88;10133988;29;20517;-79
2023/07/02 12:00:37;;;;;;;5.40;1.50;;;;;;;19.95;93.37;100665.75;10131868;29;20144;-77
2023/07/02 12:05:37;;;;;;;5.53;2.00;;;;;;;19.32;94.46;100678.03;10113070;29;20048;-76
2023/07/02 12:10:38;;;;;;;5.00;2.10;;;;;;;19.18;96.25;100691.22;10118671;29;20041;-76
2023/07/02 12:15:38;;;;;;;9.18;1.73;;;;;;;20.39;95.07;100642.69;10129055;29;20033;-76
2023/07/02 12:20:40;;;;;;;11.27;2.97;;;;;;;20.10;91.12;100672.03;10113619;29;20112;-75
2023/07/02 12:25:40;;;;;;;6.43;2.00;;;;;;;19.50;93.80;100687.34;10112396;29;20033;-74
2023/07/02 12:30:41;;;;;;;3.08;1.40;;;;;;;19.69;95.12;100695.50;10120451;29;20100;-75
2023/07/02 12:35:41;;;;;;;4.20;1.63;;;;;;;19.23;95.78;100699.47;10136012;29;20052;-77
2023/07/02 12:40:42;;;;;;;6.82;1.58;;;;;;;19.50;96.56;100732.81;10124261;29;20053;-78
2023/07/02 12:45:42;;;;;;;6.15;1.77;;;;;;;19.93;93.69;100715.53;10122624;29;20032;-79
2023/07/02 12:50:54;;;;;;;3.75;1.50;;;;;;;20.98;90.34;100695.41;10128951;29;20089;-81
2023/07/02 12:55:54;;;;;;;4.55;1.40;;;;;;;20.25;90.11;100696.75;10108916;29;20058;-82
2023/07/02 13:00:55;;;;;;;4.43;1.45;;;;;;;20.60;93.43;100735.19;10171653;29;20041;-82
2023/07/02 13:05:55;;;;;;;6.50;1.27;;;;;;;20.30;90.21;100732.94;10175597;29;20112;-78
2023/07/02 13:10:56;;;;;;;6.65;1.80;;;;;;;20.78;88.43;100719.28;10158971;29;20416;-79
2023/07/02 13:15:57;;;;;;;7.45;1.48;;;;;;;20.69;84.96;100720.09;10154261;29;20052;-78
2023/07/02 13:20:58;;;;;;;7.15;1.52;;;;;;;20.12;85.25;100725.63;10173448;29;20044;-78
2023/07/02 13:25:58;;;;;;;8.02;1.80;;;;;;;20.21;82.34;100711.69;10126549;29;20051;-81
2023/07/02 13:30:58;;;;;;;4.70;1.98;;;;;;;19.81;83.71;100731.25;10139898;29;20041;-78
2023/07/02 13:35:59;;;;;;;10.35;2.88;;;;;;;19.70;86.45;100755.78;10141290;29;20040;-81
2023/07/02 13:41:00;;;;;;;6.28;2.45;;;;;;;19.26;88.55;100754.66;10123933;29;20060;-74
2023/07/02 13:46:00;;;;;;;12.05;2.35;;;;;;;18.80;92.18;100783.59;10120622;29;20068;-77
2023/07/02 13:51:01;;;;;;;8.82;3.22;;;;;;;19.56;92.80;100775.41;10172596;29;20079;-85
2023/07/02 13:56:01;;;;;;;9.68;2.80;;;;;;;19.77;91.44;100780.53;10159635;29;20044;-77
2023/07/02 14:01:02;;;;;;;8.40;2.58;;;;;;;20.17;90.46;100770.22;10176598;29;20045;-82
2023/07/02 14:06:02;;;;;;;7.13;3.30;;;;;;;20.35;89.54;100774.72;10176437;29;20068;-77
2023/07/02 14:11:03;;;;;;;11.45;3.33;;;;;;;19.33;89.86;100788.53;10175958;29;20040;-79
2023/07/02 14:16:03;;;;;;;10.35;3.45;;;;;;;19.03;91.70;100742.63;10176360;29;20095;-77
2023/07/02 14:21:04;;;;;;;13.43;4.03;;;;;;;19.40;91.12;100799.28;10176749;29;20040;-77
2023/07/02 14:26:04;;;;;;;10.20;4.85;;;;;;;19.33;92.73;100796.91;10158712;29;20029;-78
2023/07/02 14:31:05;;;;;;;6.95;2.40;;;;;;;18.79;93.62;100795.88;10175720;29;20036;-73
2023/07/02 14:36:06;;;;;;;11.20;3.33;;;;;;;18.97;93.43;100766.22;10142878;29;20123;-69
2023/07/02 14:41:07;;;;;;;8.35;2.92;;;;;;;18.81;93.19;100799.19;10142461;29;20056;-77
2023/07/02 14:46:07;;;;;;;7.63;2.92;;;;;;;18.22;93.97;100802.56;10176175;29;20040;-76
2023/07/02 14:51:08;;;;;;;14.88;4.03;;;;;;;17.95;96.09;100817.28;10173793;29;20116;-76
2023/07/02 14:56:08;;;;;;;6.30;3.40;;;;;;;18.25;99.28;100815.91;10174942;29;20036;-75
2023/07/02 15:01:09;;;;;;;10.50;3.95;;;;;;;18.49;98.85;100814.88;10158172;29;20099;-77
2023/07/02 15:06:14;;;;;;;11.88;4.40;;;;;;;18.38;100.00;100821.81;10156625;29;20059;-75
2023/07/02 15:11:14;;;;;;;10.85;3.03;;;;;;;18.37;97.11;100818.16;10162137;29;20095;-75
2023/07/02 15:16:15;;;;;;;8.98;3.15;;;;;;;18.64;97.64;100806.19;10138423;29;20043;-77
2023/07/02 15:21:16;;;;;;;10.18;3.08;;;;;;;19.92;93.47;100806.06;10158093;29;20040;-76
2023/07/02 15:26:17;;;;;;;9.27;3.03;;;;;;;19.91;92.07;100796.06;10172782;29;20393;-76
2023/07/02 15:31:17;;;;;;;9.45;2.95;;;;;;;19.69;94.07;100796.03;10174184;29;20043;-74
2023/07/02 15:36:18;;;;;;;10.38;3.08;;;;;;;19.11;93.44;100781.78;10174106;29;20036;-75
2023/07/02 15:41:21;;;;;;;7.53;2.67;;;;;;;19.52;88.87;100780.81;10156030;29;20355;-77
2023/07/02 15:46:22;;;;;;;7.47;2.65;;;;;;;20.77;84.56;100763.19;10173313;29;20465;-74
2023/07/02 15:51:24;;;;;;;6.93;2.13;;;;;;;21.38;72.71;100726.84;10172244;29;20067;-76
2023/07/02 15:56:26;;;;;;;9.25;2.95;;;;;;;19.98;75.03;100752.88;10159310;29;20036;-75
2023/07/02 16:01:27;;;;;;;7.45;3.20;;;;;;;19.33;77.91;100760.63;10130647;29;20044;-75
2023/07/02 16:06:33;;;;;;;9.02;2.50;;;;;;;18.56;78.95;100770.66;10115448;29;20033;-75
2023/07/02 16:11:35;;;;;;;;;;;;;;;18.32;80.10;100782.88;10117555;29;20294;-78
2023/07/02 16:16:41;;;;;;;6.35;2.28;;;;;;;18.21;80.58;100789.78;10116168;29;20307;-77
2023/07/02 16:21:42;;;;;;;6.75;2.80;;;;;;;18.11;81.98;100798.34;10100727;29;20044;-77
2023/07/02 16:26:42;;;;;;;7.03;3.28;;;;;;;18.21;83.52;100792.56;10100234;29;20065;-76
2023/07/02 16:31:54;;;;;;;7.35;2.80;;;;;;;18.00;84.77;100805.22;10126895;29;20040;-76
2023/07/02 16:36:55;;;;;;;8.68;2.85;;;;;;;18.05;87.62;100810.72;10101101;29;20060;-79
2023/07/02 16:41:55;;;;;;;8.48;3.55;;;;;;;18.08;87.47;100810.91;10119065;29;20052;-78
2023/07/02 16:46:56;;;;;;;8.20;2.65;;;;;;;17.94;88.38;100794.19;10099965;29;20037;-79
2023/07/02 16:51:56;;;;;;;10.35;3.45;;;;;;;17.90;90.06;100818.19;10114384;29;20045;-76
2023/07/02 16:56:58;;;;;;;7.60;2.58;;;;;;;17.86;91.90;100819.09;10115001;29;20045;-76
2023/07/02 17:01:59;;;;;;;8.95;2.78;;;;;;;17.56;92.90;100812.88;10137550;29;20040;-79
2023/07/02 17:06:59;;;;;;;10.15;2.47;;;;;;;17.82;93.66;100823.59;10153984;29;20040;-78
2023/07/02 17:12:04;;;;;;;6.78;2.47;;;;;;;17.89;93.89;100827.66;10108335;29;20048;-80
2023/07/02 17:17:07;;;;;;;5.70;2.05;;;;;;;17.97;93.44;100815.00;10161657;29;20050;-79
2023/07/02 17:22:09;;;;;;;9.88;2.97;;;;;;;17.84;93.41;100793.50;10160901;29;20071;-81
2023/07/02 17:27:11;;;;;;;7.80;3.45;;;;;;;17.82;93.92;100813.28;10145757;29;20133;-80
2023/07/02 17:32:11;;;;;;;7.22;2.80;;;;;;;17.53;91.57;100799.59;10126545;29;20394;-82
2023/07/02 17:37:14;;;;;;;8.68;2.67;;;;;;;17.43;90.68;100791.41;10143634;29;20032;-76
2023/07/02 17:42:15;;;;;;;6.85;2.13;;;;;;;17.42;91.21;100798.91;10161389;29;20054;-78
2023/07/02 17:47:17;;;;;;;7.45;2.55;;;;;;;17.36;91.02;100783.41;10143606;29;20036;-77
2023/07/02 17:52:19;;;;;;;7.00;2.63;;;;;;;17.45;91.50;100798.31;10143620;29;20051;-80
2023/07/02 17:57:20;;;;;;;10.70;3.08;;;;;;;17.38;90.44;100788.69;10159333;29;20059;-77
2023/07/02 18:02:20;;;;;;;8.15;3.22;;;;;;;17.40;90.67;100784.44;10174121;29;20044;-79
2023/07/02 18:07:20;;;;;;;6.38;2.70;;;;;;;17.34;92.55;100772.59;10175347;29;20071;-78
2023/07/02 18:12:25;;;;;;;8.40;2.78;;;;;;;17.47;93.43;100787.69;10176692;29;20039;-78
2023/07/02 18:17:25;;;;;;;9.55;3.22;;;;;;;17.45;93.50;100781.59;10159033;29;20066;-77
2023/07/02 18:22:26;;;;;;;6.65;2.40;;;;;;;17.45;94.93;100781.59;10175834;29;20099;-77
2023/07/02 18:27:26;;;;;;;6.03;2.17;;;;;;;17.50;94.68;100783.47;10158120;29;20501;-77
2023/07/02 18:32:29;;;;;;;7.18;2.80;;;;;;;17.33;95.59;100778.47;10174535;29;20036;-77
2023/07/02 18:37:30;;;;;;;8.48;2.60;;;;;;;17.24;95.37;100780.25;10170579;29;20040;-73
2023/07/02 18:42:30;;;;;;;10.85;2.67;;;;;;;17.13;97.04;100774.84;10175157;29;20032;-75
2023/07/02 18:47:31;;;;;;;7.75;3.20;;;;;;;16.96;95.51;100774.56;10175055;29;20048;-74
2023/07/02 18:52:31;;;;;;;8.82;2.50;;;;;;;16.93;96.52;100770.41;10174112;29;20052;-74
2023/07/02 18:57:32;;;;;;;5.57;2.40;;;;;;;16.91;97.21;100782.97;10172171;29;20048;-77
2023/07/02 19:02:33;;;;;;;14.55;3.78;;;;;;;16.85;97.22;100773.06;10157024;29;20068;-74
2023/07/02 19:07:33;;;;;;;7.30;2.50;;;;;;;16.78;96.52;100772.53;10147934;29;20036;-75
2023/07/02 19:12:34;;;;;;;9.73;3.15;;;;;;;16.46;96.99;100721.28;10173195;29;20092;-75
2023/07/02 19:17:35;;;;;;;11.65;3.25;;;;;;;16.68;97.39;100763.22;10167367;29;20048;-79
2023/07/02 19:22:35;;;;;;;7.40;2.58;;;;;;;16.64;97.58;100766.88;10172537;29;20651;-76
2023/07/02 19:27:37;;;;;;;9.40;3.22;;;;;;;16.53;98.28;100755.06;10155259;29;20033;-83
2023/07/02 19:32:38;;;;;;;9.00;3.05;;;;;;;16.50;99.65;100750.13;10141489;29;20063;-86
2023/07/02 19:37:38;;;;;;;7.57;2.53;;;;;;;16.38;100.00;100761.66;10156901;29;20047;-87
2023/07/02 19:42:39;;;;;;;7.13;2.67;;;;;;;16.27;100.00;100758.16;10157429;29;20055;-89
2023/07/02 19:47:39;;;;;;;5.85;2.22;;;;;;;15.96;100.00;100735.47;10169070;29;20053;-83
2023/07/02 19:52:40;;;;;;;7.90;2.72;;;;;;;16.03;100.00;100769.25;10142705;29;20048;-86
2023/07/02 19:57:40;;;;;;;6.55;2.75;;;;;;;15.71;100.00;100756.78;10174134;29;20047;-86
2023/07/02 20:02:41;;;;;;;8.90;2.60;;;;;;;15.59;100.00;100767.44;10141945;29;20047;-88
2023/07/02 20:07:41;;;;;;;6.78;2.67;;;;;;;15.43;100.00;100766.72;10142644;29;20508;-88
2023/07/02 20:12:42;;;;;;;8.23;2.58;;;;;;;15.22;100.00;100776.31;10141226;29;20057;-89
2023/07/02 20:17:43;;;;;;;8.43;3.13;;;;;;;14.96;100.00;100762.59;10155222;29;20072;-87
2023/07/02 20:22:46;;;;;;;10.70;4.38;;;;;;;14.97;100.00;100785.63;10140122;29;20086;-86
2023/07/02 20:27:47;;;;;;;7.55;2.80;;;;;;;14.90;100.00;100777.59;10170988;29;20032;-88
2023/07/02 20:32:47;;;;;;;7.65;2.85;;;;;;;14.93;100.00;100765.97;10171939;29;20075;-85
2023/07/02 20:37:50;;;;;;;12.68;3.25;;;;;;;14.93;100.00;100760.41;10172257;29;20047;-88
2023/07/02 20:42:57;;;;;;;10.70;3.55;;;;;;;14.94;100.00;100781.47;10156124;29;20036;-87
2023/07/02 20:48:02;;;;;;;10.73;3.80;;;;;;;14.94;100.00;100767.59;10158474;29;20056;-87
2023/07/02 20:53:04;;;;;;;7.82;3.05;;;;;;;14.96;100.00;100767.34;10145115;29;20067;-88
2023/07/02 20:58:05;;;;;;;8.10;3.05;;;;;;;14.96;100.00;100759.84;10146386;29;20044;-86
2023/07/02 21:03:05;;;;;;;6.80;2.55;;;;;;;14.95;100.00;100760.97;10179593;29;20145;-87
2023/07/02 21:08:06;;;;;;;11.15;3.55;;;;;;;14.77;100.00;100737.50;10179055;29;20497;-89
2023/07/02 21:13:06;;;;;;;8.38;3.63;;;;;;;14.91;100.00;100779.28;10145330;29;20047;-88
2023/07/02 21:18:07;;;;;;;7.50;3.80;;;;;;;14.93;100.00;100765.97;10161675;29;20107;-87
2023/07/02 21:23:07;;;;;;;7.78;3.70;;;;;;;14.95;100.00;100774.00;10145258;29;20072;-87
2023/07/02 21:28:07;;;;;;;11.77;4.38;;;;;;;14.98;100.00;100763.16;10151187;29;20043;-87
2023/07/02 21:33:08;;;;;;;11.10;3.78;;;;;;;14.94;100.00;100753.75;10161024;29;20104;-73
2023/07/02 21:38:09;;;;;;;11.40;3.72;;;;;;;15.03;100.00;100757.59;10150938;29;20040;-87
2023/07/02 21:43:09;;;;;;;13.77;3.78;;;;;;;15.08;100.00;100757.53;10160587;29;20099;-87
2023/07/02 21:48:10;;;;;;;15.80;4.20;;;;;;;14.71;100.00;100697.06;10176048;29;20055;-87
2023/07/02 21:53:10;;;;;;;7.65;3.78;;;;;;;15.14;100.00;100761.94;10159713;29;20055;-87
2023/07/02 21:58:11;;;;;;;14.52;4.25;;;;;;;15.21;100.00;100744.16;10157759;29;20044;-87
2023/07/02 22:03:11;;;;;;;18.38;4.65;;;;;;;15.16;100.00;100746.97;10158959;29;20040;-81
2023/07/02 22:08:12;;;;;;;10.43;4.60;;;;;;;15.22;100.00;100740.28;10160013;29;20063;-89
2023/07/02 22:13:13;;;;;;;15.40;4.10;;;;;;;15.25;100.00;100736.91;10175039;29;20074;-88
2023/07/02 22:18:13;;;;;;;12.10;4.20;;;;;;;15.18;100.00;100709.50;10158757;29;20044;-86
2023/07/02 22:23:14;;;;;;;13.18;3.95;;;;;;;15.27;100.00;100721.63;10120895;29;20436;-88
2023/07/02 22:28:15;;;;;;;14.27;4.20;;;;;;;15.13;100.00;100699.28;10175324;29;20036;-87
2023/07/02 22:33:15;;;;;;;12.60;4.28;;;;;;;15.26;100.00;100716.38;10142947;29;20049;-87
2023/07/02 22:38:16;;;;;;;11.90;4.28;;;;;;;15.06;100.00;100681.31;10174809;29;20498;-88
2023/07/02 22:43:16;;;;;;;14.50;3.95;;;;;;;15.24;100.00;100708.34;10141651;29;20485;-87
2023/07/02 22:48:17;;;;;;;12.77;4.32;;;;;;;15.23;100.00;100711.41;10175239;29;20063;-87